sensor_id;sensor_type;location;lat;lon;timestamp;pressure;altitude;pressure_sealevel;temperature
66473;BMP280;70264;48.802;9.224;2023-07-08T00:01:16;99108.22;;;22.81
66473;BMP280;70264;48.802;9.224;2023-07-08T00:03:42;99113.91;;;22.78
66473;BMP280;70264;48.802;9.224;2023-07-08T00:06:16;99106.09;;;22.78
66473;BMP280;70264;48.802;9.224;2023-07-08T00:08:42;99105.28;;;22.73
66473;BMP280;70264;48.802;9.224;2023-07-08T00:11:10;99103.50;;;22.78
66473;BMP280;70264;48.802;9.224;2023-07-08T00:13:38;99104.22;;;22.69
66473;BMP280;70264;48.802;9.224;2023-07-08T00:16:16;99096.06;;;22.55
66473;BMP280;70264;48.802;9.224;2023-07-08T00:18:42;99095.00;;;22.56
66473;BMP280;70264;48.802;9.224;2023-07-08T00:21:12;99088.78;;;22.62
66473;BMP280;70264;48.802;9.224;2023-07-08T00:23:47;99090.84;;;22.55
66473;BMP280;70264;48.802;9.224;2023-07-08T00:26:39;99087.63;;;22.43
66473;BMP280;70264;48.802;9.224;2023-07-08T00:29:16;99082.34;;;22.38
66473;BMP280;70264;48.802;9.224;2023-07-08T00:31:43;99080.28;;;22.35
66473;BMP280;70264;48.802;9.224;2023-07-08T00:34:09;99078.97;;;22.37
66473;BMP280;70264;48.802;9.224;2023-07-08T00:36:34;99076.88;;;22.34
66473;BMP280;70264;48.802;9.224;2023-07-08T00:39:02;99077.69;;;22.40
66473;BMP280;70264;48.802;9.224;2023-07-08T00:41:39;99083.38;;;22.32
66473;BMP280;70264;48.802;9.224;2023-07-08T00:44:10;99079.66;;;22.23
66473;BMP280;70264;48.802;9.224;2023-07-08T00:46:42;99080.66;;;22.22
66473;BMP280;70264;48.802;9.224;2023-07-08T00:51:41;99101.22;;;22.13
66473;BMP280;70264;48.802;9.224;2023-07-08T00:54:17;99098.56;;;22.08
66473;BMP280;70264;48.802;9.224;2023-07-08T00:59:27;99106.25;;;21.98
66473;BMP280;70264;48.802;9.224;2023-07-08T01:01:55;99101.81;;;21.99
66473;BMP280;70264;48.802;9.224;2023-07-08T01:04:33;99098.59;;;21.86
66473;BMP280;70264;48.802;9.224;2023-07-08T01:07:01;99094.91;;;21.82
66473;BMP280;70264;48.802;9.224;2023-07-08T01:09:36;99093.50;;;21.75
66473;BMP280;70264;48.802;9.224;2023-07-08T01:12:09;99099.97;;;21.67
66473;BMP280;70264;48.802;9.224;2023-07-08T01:14:38;99095.47;;;21.63
66473;BMP280;70264;48.802;9.224;2023-07-08T01:17:08;99093.06;;;21.56
66473;BMP280;70264;48.802;9.224;2023-07-08T01:19:42;99091.19;;;21.52
66473;BMP280;70264;48.802;9.224;2023-07-08T01:22:14;99091.25;;;21.57
66473;BMP280;70264;48.802;9.224;2023-07-08T01:24:43;99097.66;;;21.49
66473;BMP280;70264;48.802;9.224;2023-07-08T01:27:14;99094.50;;;21.42
66473;BMP280;70264;48.802;9.224;2023-07-08T01:29:41;99102.00;;;21.39
66473;BMP280;70264;48.802;9.224;2023-07-08T01:32:06;99098.22;;;21.29
66473;BMP280;70264;48.802;9.224;2023-07-08T01:34:41;99097.13;;;21.25
66473;BMP280;70264;48.802;9.224;2023-07-08T01:37:06;99098.13;;;21.24
66473;BMP280;70264;48.802;9.224;2023-07-08T01:39:36;99088.22;;;21.21
66473;BMP280;70264;48.802;9.224;2023-07-08T01:42:04;99089.44;;;21.14
66473;BMP280;70264;48.802;9.224;2023-07-08T01:44:32;99092.38;;;21.01
66473;BMP280;70264;48.802;9.224;2023-07-08T01:47:02;99094.69;;;21.19
66473;BMP280;70264;48.802;9.224;2023-07-08T01:49:28;99084.69;;;21.11
66473;BMP280;70264;48.802;9.224;2023-07-08T01:51:54;99084.09;;;21.04
66473;BMP280;70264;48.802;9.224;2023-07-08T01:54:22;99089.19;;;20.99
66473;BMP280;70264;48.802;9.224;2023-07-08T01:56:54;99087.34;;;20.94
66473;BMP280;70264;48.802;9.224;2023-07-08T01:59:22;99088.53;;;20.87
66473;BMP280;70264;48.802;9.224;2023-07-08T02:01:48;99092.63;;;20.82
66473;BMP280;70264;48.802;9.224;2023-07-08T02:04:17;99091.13;;;20.87
66473;BMP280;70264;48.802;9.224;2023-07-08T02:06:42;99090.13;;;20.88
66473;BMP280;70264;48.802;9.224;2023-07-08T02:09:08;99088.13;;;20.95
66473;BMP280;70264;48.802;9.224;2023-07-08T02:11:33;99092.50;;;20.89
66473;BMP280;70264;48.802;9.224;2023-07-08T02:13:58;99095.69;;;20.79
66473;BMP280;70264;48.802;9.224;2023-07-08T02:16:28;99094.00;;;20.68
66473;BMP280;70264;48.802;9.224;2023-07-08T02:18:53;99094.72;;;20.64
66473;BMP280;70264;48.802;9.224;2023-07-08T02:21:19;99095.03;;;20.67
66473;BMP280;70264;48.802;9.224;2023-07-08T02:23:48;99099.34;;;20.62
66473;BMP280;70264;48.802;9.224;2023-07-08T02:26:16;99097.31;;;20.64
66473;BMP280;70264;48.802;9.224;2023-07-08T02:28:46;99104.53;;;20.45
66473;BMP280;70264;48.802;9.224;2023-07-08T02:31:11;99108.56;;;20.53
66473;BMP280;70264;48.802;9.224;2023-07-08T02:33:41;99110.69;;;20.56
66473;BMP280;70264;48.802;9.224;2023-07-08T02:36:07;99111.53;;;20.61
66473;BMP280;70264;48.802;9.224;2023-07-08T02:38:39;99102.63;;;20.57
66473;BMP280;70264;48.802;9.224;2023-07-08T02:41:07;99106.91;;;20.63
66473;BMP280;70264;48.802;9.224;2023-07-08T02:43:32;99107.50;;;20.54
66473;BMP280;70264;48.802;9.224;2023-07-08T02:45:57;99100.75;;;20.53
66473;BMP280;70264;48.802;9.224;2023-07-08T02:48:25;99103.38;;;20.53
66473;BMP280;70264;48.802;9.224;2023-07-08T02:50:50;99118.38;;;20.51
66473;BMP280;70264;48.802;9.224;2023-07-08T02:53:15;99116.09;;;20.54
66473;BMP280;70264;48.802;9.224;2023-07-08T02:55:41;99112.31;;;20.62
66473;BMP280;70264;48.802;9.224;2023-07-08T02:58:08;99116.91;;;20.71
66473;BMP280;70264;48.802;9.224;2023-07-08T03:00:33;99121.59;;;20.74
66473;BMP280;70264;48.802;9.224;2023-07-08T03:03:06;99121.31;;;20.71
66473;BMP280;70264;48.802;9.224;2023-07-08T03:05:32;99129.34;;;20.69
66473;BMP280;70264;48.802;9.224;2023-07-08T03:07:58;99138.41;;;20.67
66473;BMP280;70264;48.802;9.224;2023-07-08T03:10:26;99143.13;;;20.70
66473;BMP280;70264;48.802;9.224;2023-07-08T03:12:51;99148.56;;;20.68
66473;BMP280;70264;48.802;9.224;2023-07-08T03:15:17;99142.97;;;20.60
66473;BMP280;70264;48.802;9.224;2023-07-08T03:17:42;99135.19;;;20.60
66473;BMP280;70264;48.802;9.224;2023-07-08T03:20:11;99145.31;;;20.61
66473;BMP280;70264;48.802;9.224;2023-07-08T03:22:37;99149.50;;;20.62
66473;BMP280;70264;48.802;9.224;2023-07-08T03:25:05;99153.03;;;20.56
66473;BMP280;70264;48.802;9.224;2023-07-08T03:27:30;99167.19;;;20.49
66473;BMP280;70264;48.802;9.224;2023-07-08T03:30:00;99145.78;;;20.58
66473;BMP280;70264;48.802;9.224;2023-07-08T03:32:28;99138.72;;;20.70
66473;BMP280;70264;48.802;9.224;2023-07-08T03:34:54;99140.22;;;20.66
66473;BMP280;70264;48.802;9.224;2023-07-08T03:37:19;99148.38;;;20.58
66473;BMP280;70264;48.802;9.224;2023-07-08T03:39:46;99140.59;;;20.75
66473;BMP280;70264;48.802;9.224;2023-07-08T03:42:12;99124.53;;;20.78
66473;BMP280;70264;48.802;9.224;2023-07-08T03:44:37;99127.06;;;20.56
66473;BMP280;70264;48.802;9.224;2023-07-08T03:47:02;99124.69;;;20.55
66473;BMP280;70264;48.802;9.224;2023-07-08T03:49:30;99126.19;;;20.51
66473;BMP280;70264;48.802;9.224;2023-07-08T03:51:55;99141.47;;;20.47
66473;BMP280;70264;48.802;9.224;2023-07-08T03:54:23;99149.16;;;20.42
66473;BMP280;70264;48.802;9.224;2023-07-08T03:56:49;99159.66;;;20.47
66473;BMP280;70264;48.802;9.224;2023-07-08T03:59:14;99148.66;;;20.57
66473;BMP280;70264;48.802;9.224;2023-07-08T04:01:40;99147.00;;;20.67
66473;BMP280;70264;48.802;9.224;2023-07-08T04:04:08;99150.69;;;20.71
66473;BMP280;70264;48.802;9.224;2023-07-08T04:06:33;99144.72;;;20.71
66473;BMP280;70264;48.802;9.224;2023-07-08T04:08:59;99143.50;;;20.78
66473;BMP280;70264;48.802;9.224;2023-07-08T04:11:27;99144.88;;;20.81
66473;BMP280;70264;48.802;9.224;2023-07-08T04:13:52;99139.28;;;20.89
66473;BMP280;70264;48.802;9.224;2023-07-08T04:16:23;99140.28;;;21.05
66473;BMP280;70264;48.802;9.224;2023-07-08T04:18:53;99140.91;;;21.12
66473;BMP280;70264;48.802;9.224;2023-07-08T04:21:19;99148.22;;;21.15
66473;BMP280;70264;48.802;9.224;2023-07-08T04:23:45;99144.97;;;21.24
66473;BMP280;70264;48.802;9.224;2023-07-08T04:26:11;99147.19;;;21.16
66473;BMP280;70264;48.802;9.224;2023-07-08T04:28:36;99135.66;;;21.28
66473;BMP280;70264;48.802;9.224;2023-07-08T04:31:02;99138.56;;;21.32
66473;BMP280;70264;48.802;9.224;2023-07-08T04:33:30;99135.03;;;21.38
66473;BMP280;70264;48.802;9.224;2023-07-08T04:35:58;99136.22;;;21.52
66473;BMP280;70264;48.802;9.224;2023-07-08T04:38:25;99136.38;;;21.62
66473;BMP280;70264;48.802;9.224;2023-07-08T04:40:52;99136.44;;;21.72
66473;BMP280;70264;48.802;9.224;2023-07-08T04:43:20;99135.53;;;21.83
66473;BMP280;70264;48.802;9.224;2023-07-08T04:45:51;99134.59;;;21.90
66473;BMP280;70264;48.802;9.224;2023-07-08T04:48:23;99133.63;;;22.01
66473;BMP280;70264;48.802;9.224;2023-07-08T04:50:50;99133.78;;;22.16
66473;BMP280;70264;48.802;9.224;2023-07-08T04:53:16;99137.03;;;22.28
66473;BMP280;70264;48.802;9.224;2023-07-08T04:55:45;99146.16;;;22.30
66473;BMP280;70264;48.802;9.224;2023-07-08T04:58:14;99156.91;;;22.39
66473;BMP280;70264;48.802;9.224;2023-07-08T05:00:39;99145.97;;;22.42
66473;BMP280;70264;48.802;9.224;2023-07-08T05:03:04;99149.16;;;22.44
66473;BMP280;70264;48.802;9.224;2023-07-08T05:05:32;99141.38;;;22.22
66473;BMP280;70264;48.802;9.224;2023-07-08T05:07:57;99144.41;;;22.36
66473;BMP280;70264;48.802;9.224;2023-07-08T05:10:23;99142.34;;;22.43
66473;BMP280;70264;48.802;9.224;2023-07-08T05:12:48;99146.28;;;22.46
66473;BMP280;70264;48.802;9.224;2023-07-08T05:15:16;99142.19;;;22.55
66473;BMP280;70264;48.802;9.224;2023-07-08T05:17:44;99137.59;;;22.67
66473;BMP280;70264;48.802;9.224;2023-07-08T05:20:13;99156.94;;;22.76
66473;BMP280;70264;48.802;9.224;2023-07-08T05:22:43;99152.56;;;22.86
66473;BMP280;70264;48.802;9.224;2023-07-08T05:25:14;99152.81;;;22.85
66473;BMP280;70264;48.802;9.224;2023-07-08T05:27:43;99152.16;;;23.05
66473;BMP280;70264;48.802;9.224;2023-07-08T05:30:14;99162.75;;;23.30
66473;BMP280;70264;48.802;9.224;2023-07-08T05:32:40;99163.63;;;23.51
66473;BMP280;70264;48.802;9.224;2023-07-08T05:35:08;99170.50;;;23.87
66473;BMP280;70264;48.802;9.224;2023-07-08T05:37:36;99193.28;;;24.02
66473;BMP280;70264;48.802;9.224;2023-07-08T05:40:01;99160.84;;;24.08
66473;BMP280;70264;48.802;9.224;2023-07-08T05:42:32;99163.75;;;24.26
66473;BMP280;70264;48.802;9.224;2023-07-08T05:44:57;99178.13;;;24.49
66473;BMP280;70264;48.802;9.224;2023-07-08T05:47:25;99182.31;;;24.40
66473;BMP280;70264;48.802;9.224;2023-07-08T05:49:50;99187.00;;;24.08
66473;BMP280;70264;48.802;9.224;2023-07-08T05:52:15;99182.84;;;24.17
66473;BMP280;70264;48.802;9.224;2023-07-08T05:54:43;99181.78;;;24.13
66473;BMP280;70264;48.802;9.224;2023-07-08T05:57:11;99176.56;;;24.13
66473;BMP280;70264;48.802;9.224;2023-07-08T05:59:39;99190.13;;;24.05
66473;BMP280;70264;48.802;9.224;2023-07-08T06:02:06;99180.72;;;23.98
66473;BMP280;70264;48.802;9.224;2023-07-08T06:04:34;99181.78;;;24.13
66473;BMP280;70264;48.802;9.224;2023-07-08T06:06:59;99192.50;;;24.16
66473;BMP280;70264;48.802;9.224;2023-07-08T06:09:27;99192.75;;;24.10
66473;BMP280;70264;48.802;9.224;2023-07-08T06:11:52;99183.09;;;24.15
66473;BMP280;70264;48.802;9.224;2023-07-08T06:14:18;99187.81;;;24.23
66473;BMP280;70264;48.802;9.224;2023-07-08T06:16:45;99189.63;;;24.18
66473;BMP280;70264;48.802;9.224;2023-07-08T06:19:13;99193.81;;;24.29
66473;BMP280;70264;48.802;9.224;2023-07-08T06:21:40;99195.66;;;24.38
66473;BMP280;70264;48.802;9.224;2023-07-08T06:24:08;99188.06;;;24.57
66473;BMP280;70264;48.802;9.224;2023-07-08T06:26:35;99184.91;;;24.60
66473;BMP280;70264;48.802;9.224;2023-07-08T06:29:01;99194.34;;;24.61
66473;BMP280;70264;48.802;9.224;2023-07-08T06:31:29;99198.50;;;24.82
66473;BMP280;70264;48.802;9.224;2023-07-08T06:33:57;99192.75;;;24.85
66473;BMP280;70264;48.802;9.224;2023-07-08T06:36:25;99194.59;;;24.90
66473;BMP280;70264;48.802;9.224;2023-07-08T06:38:50;99201.13;;;24.92
66473;BMP280;70264;48.802;9.224;2023-07-08T06:41:15;99194.53;;;25.10
66473;BMP280;70264;48.802;9.224;2023-07-08T06:43:41;99188.97;;;25.22
66473;BMP280;70264;48.802;9.224;2023-07-08T06:46:06;99198.88;;;25.40
66473;BMP280;70264;48.802;9.224;2023-07-08T06:48:32;99209.91;;;25.37
66473;BMP280;70264;48.802;9.224;2023-07-08T06:50:58;99204.56;;;25.57
66473;BMP280;70264;48.802;9.224;2023-07-08T06:53:26;99210.38;;;25.93
66473;BMP280;70264;48.802;9.224;2023-07-08T06:55:51;99214.22;;;26.39
66473;BMP280;70264;48.802;9.224;2023-07-08T06:58:18;99210.59;;;26.64
66473;BMP280;70264;48.802;9.224;2023-07-08T07:00:44;99209.34;;;26.85
66473;BMP280;70264;48.802;9.224;2023-07-08T07:03:12;99212.13;;;26.94
66473;BMP280;70264;48.802;9.224;2023-07-08T07:05:42;99215.00;;;26.97
66473;BMP280;70264;48.802;9.224;2023-07-08T07:08:08;99219.03;;;27.08
66473;BMP280;70264;48.802;9.224;2023-07-08T07:10:36;99214.13;;;27.07
66473;BMP280;70264;48.802;9.224;2023-07-08T07:13:02;99222.56;;;27.04
66473;BMP280;70264;48.802;9.224;2023-07-08T07:15:29;99224.94;;;27.00
66473;BMP280;70264;48.802;9.224;2023-07-08T07:17:56;99220.25;;;26.97
66473;BMP280;70264;48.802;9.224;2023-07-08T07:25:31;99226.50;;;27.25
66473;BMP280;70264;48.802;9.224;2023-07-08T07:27:59;99226.38;;;27.11
66473;BMP280;70264;48.802;9.224;2023-07-08T07:30:28;99230.28;;;27.37
66473;BMP280;70264;48.802;9.224;2023-07-08T07:32:59;99212.94;;;27.55
66473;BMP280;70264;48.802;9.224;2023-07-08T07:35:25;99215.19;;;27.48
66473;BMP280;70264;48.802;9.224;2023-07-08T07:37:50;99218.59;;;27.67
66473;BMP280;70264;48.802;9.224;2023-07-08T07:40:15;99214.28;;;27.76
66473;BMP280;70264;48.802;9.224;2023-07-08T07:42:43;99226.75;;;27.66
66473;BMP280;70264;48.802;9.224;2023-07-08T07:45:09;99227.03;;;27.64
66473;BMP280;70264;48.802;9.224;2023-07-08T07:47:37;99232.22;;;27.69
66473;BMP280;70264;48.802;9.224;2023-07-08T07:50:09;99230.38;;;27.51
66473;BMP280;70264;48.802;9.224;2023-07-08T07:52:35;99236.22;;;27.48
66473;BMP280;70264;48.802;9.224;2023-07-08T07:55:01;99235.69;;;27.46
66473;BMP280;70264;48.802;9.224;2023-07-08T07:57:26;99238.03;;;27.48
66473;BMP280;70264;48.802;9.224;2023-07-08T07:59:54;99248.59;;;27.42
66473;BMP280;70264;48.802;9.224;2023-07-08T08:02:19;99242.97;;;27.54
66473;BMP280;70264;48.802;9.224;2023-07-08T08:04:47;99233.06;;;27.83
66473;BMP280;70264;48.802;9.224;2023-07-08T08:07:13;99230.00;;;27.95
66473;BMP280;70264;48.802;9.224;2023-07-08T08:09:42;99228.56;;;28.02
66473;BMP280;70264;48.802;9.224;2023-07-08T08:12:10;99219.50;;;28.27
66473;BMP280;70264;48.802;9.224;2023-07-08T08:14:35;99225.81;;;28.13
66473;BMP280;70264;48.802;9.224;2023-07-08T08:17:01;99229.16;;;28.32
66473;BMP280;70264;48.802;9.224;2023-07-08T08:19:34;99229.16;;;28.32
66473;BMP280;70264;48.802;9.224;2023-07-08T08:22:01;99224.59;;;28.37
66473;BMP280;70264;48.802;9.224;2023-07-08T08:24:27;99230.94;;;28.36
66473;BMP280;70264;48.802;9.224;2023-07-08T08:26:52;99233.69;;;28.45
66473;BMP280;70264;48.802;9.224;2023-07-08T08:29:17;99225.66;;;28.50
66473;BMP280;70264;48.802;9.224;2023-07-08T08:31:43;99232.13;;;28.57
66473;BMP280;70264;48.802;9.224;2023-07-08T08:34:08;99234.19;;;28.74
66473;BMP280;70264;48.802;9.224;2023-07-08T08:36:33;99242.03;;;28.93
66473;BMP280;70264;48.802;9.224;2023-07-08T08:38:59;99236.63;;;28.98
66473;BMP280;70264;48.802;9.224;2023-07-08T08:41:34;99229.81;;;28.83
66473;BMP280;70264;48.802;9.224;2023-07-08T08:44:06;99225.53;;;29.14
66473;BMP280;70264;48.802;9.224;2023-07-08T08:46:41;99221.00;;;29.15
66473;BMP280;70264;48.802;9.224;2023-07-08T08:51:47;99232.56;;;29.05
66473;BMP280;70264;48.802;9.224;2023-07-08T08:54:20;99235.75;;;29.16
66473;BMP280;70264;48.802;9.224;2023-07-08T08:57:08;99241.88;;;29.39
66473;BMP280;70264;48.802;9.224;2023-07-08T09:02:32;99247.13;;;29.52
66473;BMP280;70264;48.802;9.224;2023-07-08T09:05:03;99242.63;;;29.53
66473;BMP280;70264;48.802;9.224;2023-07-08T09:07:36;99244.56;;;29.47
66473;BMP280;70264;48.802;9.224;2023-07-08T09:10:19;99243.28;;;29.45
66473;BMP280;70264;48.802;9.224;2023-07-08T09:12:50;99251.19;;;29.09
66473;BMP280;70264;48.802;9.224;2023-07-08T09:15:17;99248.41;;;29.28
66473;BMP280;70264;48.802;9.224;2023-07-08T09:17:44;99243.38;;;29.53
66473;BMP280;70264;48.802;9.224;2023-07-08T09:22:59;99255.53;;;29.76
66473;BMP280;70264;48.802;9.224;2023-07-08T09:25:39;99244.31;;;29.93
66473;BMP280;70264;48.802;9.224;2023-07-08T09:28:12;99242.75;;;29.92
66473;BMP280;70264;48.802;9.224;2023-07-08T09:30:40;99243.72;;;30.18
66473;BMP280;70264;48.802;9.224;2023-07-08T09:33:08;99243.28;;;30.25
66473;BMP280;70264;48.802;9.224;2023-07-08T09:35:45;99234.09;;;30.22
66473;BMP280;70264;48.802;9.224;2023-07-08T09:38:18;99234.09;;;30.22
66473;BMP280;70264;48.802;9.224;2023-07-08T09:40:53;99240.81;;;30.28
66473;BMP280;70264;48.802;9.224;2023-07-08T09:43:34;99235.03;;;29.96
66473;BMP280;70264;48.802;9.224;2023-07-08T09:46:04;99230.31;;;29.70
66473;BMP280;70264;48.802;9.224;2023-07-08T09:48:34;99228.16;;;29.86
66473;BMP280;70264;48.802;9.224;2023-07-08T09:51:05;99236.44;;;30.24
66473;BMP280;70264;48.802;9.224;2023-07-08T09:53:33;99237.59;;;30.40
66473;BMP280;70264;48.802;9.224;2023-07-08T09:56:03;99223.00;;;30.42
66473;BMP280;70264;48.802;9.224;2023-07-08T10:00:59;99226.56;;;30.38
66473;BMP280;70264;48.802;9.224;2023-07-08T10:03:32;99229.53;;;30.14
66473;BMP280;70264;48.802;9.224;2023-07-08T10:06:05;99234.09;;;30.22
66473;BMP280;70264;48.802;9.224;2023-07-08T10:08:40;99234.53;;;30.46
66473;BMP280;70264;48.802;9.224;2023-07-08T10:13:53;99231.09;;;30.77
66473;BMP280;70264;48.802;9.224;2023-07-08T10:16:27;99228.47;;;30.94
66473;BMP280;70264;48.802;9.224;2023-07-08T10:18:58;99232.84;;;30.98
66473;BMP280;70264;48.802;9.224;2023-07-08T10:24:27;99234.09;;;30.53
66473;BMP280;70264;48.802;9.224;2023-07-08T10:30:02;99237.53;;;30.23
66473;BMP280;70264;48.802;9.224;2023-07-08T10:35:27;99244.69;;;30.00
66473;BMP280;70264;48.802;9.224;2023-07-08T10:44:18;99242.28;;;29.90
66473;BMP280;70264;48.802;9.224;2023-07-08T10:55:12;99241.22;;;31.00
66473;BMP280;70264;48.802;9.224;2023-07-08T10:57:52;99236.56;;;30.97
66473;BMP280;70264;48.802;9.224;2023-07-08T11:00:31;99242.34;;;31.16
66473;BMP280;70264;48.802;9.224;2023-07-08T11:05:58;99236.59;;;31.32
66473;BMP280;70264;48.802;9.224;2023-07-08T11:08:35;99239.88;;;31.37
66473;BMP280;70264;48.802;9.224;2023-07-08T11:14:10;99230.84;;;31.72
66473;BMP280;70264;48.802;9.224;2023-07-08T11:16:52;99229.50;;;32.21
66473;BMP280;70264;48.802;9.224;2023-07-08T11:19:35;99233.28;;;32.41
66473;BMP280;70264;48.802;9.224;2023-07-08T11:22:07;99224.19;;;32.50
66473;BMP280;70264;48.802;9.224;2023-07-08T11:24:45;99229.78;;;32.87
66473;BMP280;70264;48.802;9.224;2023-07-08T11:27:17;99227.41;;;32.65
66473;BMP280;70264;48.802;9.224;2023-07-08T11:29:48;99227.41;;;32.65
66473;BMP280;70264;48.802;9.224;2023-07-08T11:32:21;99224.09;;;33.50
66473;BMP280;70264;48.802;9.224;2023-07-08T11:34:50;99219.22;;;33.40
66473;BMP280;70264;48.802;9.224;2023-07-08T11:37:20;99219.03;;;33.57
66473;BMP280;70264;48.802;9.224;2023-07-08T11:40:00;99214.88;;;32.94
66473;BMP280;70264;48.802;9.224;2023-07-08T11:42:44;99216.34;;;33.12
66473;BMP280;70264;48.802;9.224;2023-07-08T11:45:34;99204.06;;;33.41
66473;BMP280;70264;48.802;9.224;2023-07-08T11:48:24;99212.06;;;33.65
66473;BMP280;70264;48.802;9.224;2023-07-08T11:50:51;99209.38;;;33.85
66473;BMP280;70264;48.802;9.224;2023-07-08T11:55:59;99196.66;;;34.03
66473;BMP280;70264;48.802;9.224;2023-07-08T12:08:56;99188.81;;;34.19
66473;BMP280;70264;48.802;9.224;2023-07-08T12:11:27;99179.16;;;34.02
66473;BMP280;70264;48.802;9.224;2023-07-08T12:14:00;99175.97;;;34.09
66473;BMP280;70264;48.802;9.224;2023-07-08T12:16:27;99173.41;;;34.12
66473;BMP280;70264;48.802;9.224;2023-07-08T12:18:54;99172.31;;;34.13
66473;BMP280;70264;48.802;9.224;2023-07-08T12:21:23;99170.22;;;34.31
66473;BMP280;70264;48.802;9.224;2023-07-08T12:23:54;99168.09;;;34.36
66473;BMP280;70264;48.802;9.224;2023-07-08T12:26:21;99160.03;;;34.33
66473;BMP280;70264;48.802;9.224;2023-07-08T12:28:50;99167.31;;;34.36
66473;BMP280;70264;48.802;9.224;2023-07-08T12:31:19;99164.47;;;34.81
66473;BMP280;70264;48.802;9.224;2023-07-08T12:33:47;99159.97;;;34.45
66473;BMP280;70264;48.802;9.224;2023-07-08T12:36:20;99153.34;;;34.51
66473;BMP280;70264;48.802;9.224;2023-07-08T12:38:54;99159.25;;;34.72
66473;BMP280;70264;48.802;9.224;2023-07-08T12:41:25;99157.59;;;34.28
66473;BMP280;70264;48.802;9.224;2023-07-08T12:43:51;99166.66;;;34.15
66473;BMP280;70264;48.802;9.224;2023-07-08T12:46:22;99162.53;;;34.41
66473;BMP280;70264;48.802;9.224;2023-07-08T12:48:51;99156.56;;;34.56
66473;BMP280;70264;48.802;9.224;2023-07-08T12:51:19;99156.63;;;35.00
66473;BMP280;70264;48.802;9.224;2023-07-08T12:53:49;99156.50;;;35.55
66473;BMP280;70264;48.802;9.224;2023-07-08T12:56:17;99152.72;;;35.56
66473;BMP280;70264;48.802;9.224;2023-07-08T12:58:46;99144.66;;;35.68
66473;BMP280;70264;48.802;9.224;2023-07-08T13:01:22;99137.50;;;35.25
66473;BMP280;70264;48.802;9.224;2023-07-08T13:03:50;99139.44;;;34.70
66473;BMP280;70264;48.802;9.224;2023-07-08T13:06:20;99141.97;;;35.53
66473;BMP280;70264;48.802;9.224;2023-07-08T13:08:47;99148.84;;;35.69
66473;BMP280;70264;48.802;9.224;2023-07-08T13:11:16;99143.41;;;35.81
66473;BMP280;70264;48.802;9.224;2023-07-08T13:13:53;99132.69;;;35.93
66473;BMP280;70264;48.802;9.224;2023-07-08T13:16:23;99136.41;;;36.43
66473;BMP280;70264;48.802;9.224;2023-07-08T13:18:52;99135.41;;;36.51
66473;BMP280;70264;48.802;9.224;2023-07-08T13:21:17;99136.16;;;36.51
66473;BMP280;70264;48.802;9.224;2023-07-08T13:23:43;99134.34;;;36.74
66473;BMP280;70264;48.802;9.224;2023-07-08T13:26:29;99136.84;;;36.86
66473;BMP280;70264;48.802;9.224;2023-07-08T13:29:04;99121.31;;;36.50
66473;BMP280;70264;48.802;9.224;2023-07-08T13:31:34;99126.50;;;36.62
66473;BMP280;70264;48.802;9.224;2023-07-08T13:34:08;99127.81;;;37.14
66473;BMP280;70264;48.802;9.224;2023-07-08T13:36:36;99129.31;;;37.37
66473;BMP280;70264;48.802;9.224;2023-07-08T13:39:07;99129.66;;;37.58
66473;BMP280;70264;48.802;9.224;2023-07-08T13:41:34;99130.28;;;37.26
66473;BMP280;70264;48.802;9.224;2023-07-08T13:44:06;99123.75;;;37.72
66473;BMP280;70264;48.802;9.224;2023-07-08T13:46:49;99122.81;;;37.12
66473;BMP280;70264;48.802;9.224;2023-07-08T13:49:24;99119.72;;;37.33
66473;BMP280;70264;48.802;9.224;2023-07-08T13:52:13;99125.06;;;36.87
66473;BMP280;70264;48.802;9.224;2023-07-08T13:54:54;99121.63;;;37.10
66473;BMP280;70264;48.802;9.224;2023-07-08T13:57:22;99116.66;;;37.87
66473;BMP280;70264;48.802;9.224;2023-07-08T13:59:48;99109.47;;;37.61
66473;BMP280;70264;48.802;9.224;2023-07-08T14:02:22;99098.22;;;37.74
66473;BMP280;70264;48.802;9.224;2023-07-08T14:04:51;99098.22;;;37.74
66473;BMP280;70264;48.802;9.224;2023-07-08T14:07:21;99100.56;;;38.09
66473;BMP280;70264;48.802;9.224;2023-07-08T14:09:47;99105.31;;;37.15
66473;BMP280;70264;48.802;9.224;2023-07-08T14:12:14;99108.22;;;37.81
66473;BMP280;70264;48.802;9.224;2023-07-08T14:14:40;99106.19;;;38.71
66473;BMP280;70264;48.802;9.224;2023-07-08T14:17:10;99100.94;;;38.85
66473;BMP280;70264;48.802;9.224;2023-07-08T14:19:38;99095.16;;;39.23
66473;BMP280;70264;48.802;9.224;2023-07-08T14:24:38;99106.34;;;40.35
66473;BMP280;70264;48.802;9.224;2023-07-08T14:27:04;99106.00;;;40.76
66473;BMP280;70264;48.802;9.224;2023-07-08T14:29:29;99105.84;;;41.60
66473;BMP280;70264;48.802;9.224;2023-07-08T14:31:54;99095.56;;;42.20
66473;BMP280;70264;48.802;9.224;2023-07-08T14:34:24;99097.75;;;42.36
66473;BMP280;70264;48.802;9.224;2023-07-08T14:36:53;99104.44;;;42.10
66473;BMP280;70264;48.802;9.224;2023-07-08T14:39:19;99097.47;;;42.20
66473;BMP280;70264;48.802;9.224;2023-07-08T14:41:47;99098.84;;;39.66
66473;BMP280;70264;48.802;9.224;2023-07-08T14:46:44;99098.59;;;39.27
66473;BMP280;70264;48.802;9.224;2023-07-08T14:49:17;99104.69;;;39.89
66473;BMP280;70264;48.802;9.224;2023-07-08T14:51:48;99099.50;;;40.63
66473;BMP280;70264;48.802;9.224;2023-07-08T14:54:20;99083.84;;;42.41
66473;BMP280;70264;48.802;9.224;2023-07-08T14:56:47;99093.56;;;42.76
66473;BMP280;70264;48.802;9.224;2023-07-08T14:59:22;99091.19;;;44.05
66473;BMP280;70264;48.802;9.224;2023-07-08T15:01:51;99085.94;;;44.45
66473;BMP280;70264;48.802;9.224;2023-07-08T15:04:18;99093.75;;;42.00
66473;BMP280;70264;48.802;9.224;2023-07-08T15:06:47;99096.00;;;39.41
66473;BMP280;70264;48.802;9.224;2023-07-08T15:09:15;99091.06;;;38.89
66473;BMP280;70264;48.802;9.224;2023-07-08T15:11:44;99092.56;;;40.33
66473;BMP280;70264;48.802;9.224;2023-07-08T15:16:42;99095.97;;;38.06
66473;BMP280;70264;48.802;9.224;2023-07-08T15:19:13;99081.16;;;38.49
66473;BMP280;70264;48.802;9.224;2023-07-08T15:21:39;99088.28;;;38.75
66473;BMP280;70264;48.802;9.224;2023-07-08T15:24:10;99088.84;;;38.54
66473;BMP280;70264;48.802;9.224;2023-07-08T15:26:40;99089.50;;;38.88
66473;BMP280;70264;48.802;9.224;2023-07-08T15:29:12;99096.41;;;40.82
66473;BMP280;70264;48.802;9.224;2023-07-08T15:31:39;99092.66;;;41.87
66473;BMP280;70264;48.802;9.224;2023-07-08T15:34:12;99088.75;;;40.91